Time;durP1;ratioP1;P1;durP2;ratioP2;P2;SDS_P1;SDS_P2;PMS_P1;PMS_P2;Temp;Humidity;BMP_temperature;BMP_pressure;BME280_temperature;BME280_humidity;BME280_pressure;Samples;Min_cycle;Max_cycle;Signal;HPM_P1;HPM_P2
2022/03/21 00:00:07;;;;;;;79.68;61.47;;;;;;;5.77;56.96;102983.69;5228312;28;20515;-51
2022/03/21 00:02:40;;;;;;;75.65;59.95;;;;;;;5.69;57.03;102970.06;5226391;28;20396;-56
2022/03/21 00:05:13;;;;;;;81.07;60.42;;;;;;;5.73;56.91;102984.75;5225084;28;20407;-50
2022/03/21 00:07:45;;;;;;;79.30;60.08;;;;;;;5.75;57.16;102987.28;5223712;28;20411;-50
2022/03/21 00:10:19;;;;;;;81.18;62.15;;;;;;;5.77;57.03;102990.72;5221485;28;20485;-50
2022/03/21 00:12:52;;;;;;;84.38;62.38;;;;;;;5.75;56.91;102997.78;5226767;28;20951;-51
2022/03/21 00:15:24;;;;;;;76.82;60.97;;;;;;;5.74;56.95;102999.56;5226929;28;20408;-55
2022/03/21 00:17:57;;;;;;;82.80;62.17;;;;;;;5.70;57.11;102984.88;5224738;28;20581;-53
2022/03/21 00:20:30;;;;;;;81.50;59.25;;;;;;;5.63;57.16;102979.94;5222239;28;20423;-53
2022/03/21 00:23:03;;;;;;;81.82;62.42;;;;;;;5.74;57.09;102996.09;5227045;28;20426;-48
2022/03/21 00:25:37;;;;;;;78.82;59.78;;;;;;;5.73;56.88;102995.25;5225941;28;20403;-53
2022/03/21 00:28:11;;;;;;;80.70;60.25;;;;;;;5.75;56.72;102992.53;5227551;28;20453;-54
2022/03/21 00:30:45;;;;;;;79.13;58.90;;;;;;;5.69;56.76;102990.19;5224985;28;20411;-55
2022/03/21 00:33:18;;;;;;;78.90;58.40;;;;;;;5.77;56.87;102996.81;5222743;28;20491;-55
2022/03/21 00:35:51;;;;;;;78.78;59.25;;;;;;;5.76;56.86;103004.72;5226818;28;20419;-52
2022/03/21 00:38:23;;;;;;;72.67;56.10;;;;;;;5.75;56.93;102997.78;5222006;28;20408;-57
2022/03/21 00:40:58;;;;;;;75.60;58.95;;;;;;;5.76;56.63;102999.47;5226966;28;20652;-53
2022/03/21 00:43:30;;;;;;;73.65;56.22;;;;;;;5.75;56.65;103003.03;5225332;28;20422;-50
2022/03/21 00:46:03;;;;;;;73.28;57.28;;;;;;;5.74;56.54;103001.34;5226477;28;20443;-51
2022/03/21 00:48:36;;;;;;;75.55;56.60;;;;;;;5.73;56.85;103004.88;5224914;28;20809;-48
2022/03/21 00:51:08;;;;;;;76.57;59.92;;;;;;;5.73;56.56;103002.25;5226258;28;20392;-53
2022/03/21 00:53:41;;;;;;;72.97;54.80;;;;;;;5.69;56.71;102992.81;5224009;28;20411;-54
2022/03/21 00:56:14;;;;;;;75.47;57.65;;;;;;;5.71;56.78;103001.47;5225864;28;20429;-53
2022/03/21 00:58:47;;;;;;;74.78;54.78;;;;;;;5.69;56.68;103006.75;5225213;28;20414;-51
2022/03/21 01:01:19;;;;;;;74.25;57.47;;;;;;;5.69;56.73;103013.78;5218918;28;20455;-54
2022/03/21 01:03:52;;;;;;;78.75;58.65;;;;;;;5.68;56.64;103019.94;5204551;28;20498;-55
2022/03/21 01:06:24;;;;;;;76.10;59.83;;;;;;;5.67;56.57;103019.09;5208740;28;20496;-52
2022/03/21 01:08:56;;;;;;;73.45;56.20;;;;;;;5.65;56.66;103022.69;5224247;28;20494;-55
2022/03/21 01:11:30;;;;;;;75.32;56.70;;;;;;;5.62;56.67;103023.66;5226170;28;20442;-52
2022/03/21 01:14:03;;;;;;;73.68;55.35;;;;;;;5.38;56.45;102982.75;5224460;28;20877;-53
2022/03/21 01:16:35;;;;;;;71.03;54.47;;;;;;;5.61;56.71;103023.75;5223399;28;20499;-53
2022/03/21 01:19:08;;;;;;;75.90;55.70;;;;;;;5.45;56.62;103000.78;5230104;28;20410;-51
2022/03/21 01:21:40;;;;;;;73.55;55.15;;;;;;;5.40;56.40;102992.25;5228977;28;20399;-56
2022/03/21 01:24:13;;;;;;;79.43;58.17;;;;;;;5.58;56.66;103026.50;5228737;28;20542;-55
2022/03/21 01:26:47;;;;;;;80.85;58.05;;;;;;;5.61;56.66;103023.75;5229357;28;20400;-52
2022/03/21 01:29:19;;;;;;;77.03;59.25;;;;;;;5.60;56.32;103024.63;5224478;28;20494;-53
2022/03/21 01:31:52;;;;;;;79.68;59.30;;;;;;;5.53;56.33;103024.91;5227540;28;20412;-56
2022/03/21 01:34:24;;;;;;;75.57;57.67;;;;;;;5.53;56.48;103024.91;5230252;28;20437;-54
2022/03/21 01:36:57;;;;;;;80.55;58.33;;;;;;;5.52;56.40;103031.06;5229823;28;20418;-54
2022/03/21 01:39:29;;;;;;;78.30;58.23;;;;;;;5.51;56.64;103034.59;5230346;28;20603;-48
2022/03/21 01:42:06;;;;;;;77.72;57.88;;;;;;;5.47;56.61;103032.16;5227905;28;20806;-50
2022/03/21 01:44:38;;;;;;;76.95;58.20;;;;;;;5.48;56.15;103041.72;5222560;28;20497;-52
2022/03/21 01:47:11;;;;;;;76.65;60.53;;;;;;;5.40;56.14;103025.47;5230045;28;20907;-53
2022/03/21 01:49:46;;;;;;;81.32;61.28;;;;;;;5.37;56.26;103031.69;5192897;28;20441;-51
2022/03/21 01:52:19;;;;;;;85.70;62.65;;;;;;;5.33;56.26;103032.75;5228160;28;20404;-50
2022/03/21 01:57:45;;;;;;;82.53;61.80;;;;;;;5.23;56.48;103029.63;5203974;28;20415;-49
2022/03/21 02:00:17;;;;;;;88.40;64.47;;;;;;;5.08;56.33;103012.75;5222186;28;20490;-47
2022/03/21 02:02:50;;;;;;;88.50;64.53;;;;;;;5.18;56.65;103025.50;5240234;28;20415;-54
2022/03/21 02:05:22;;;;;;;86.10;64.85;;;;;;;5.15;56.39;103028.22;5225110;28;20455;-53
2022/03/21 02:07:55;;;;;;;92.63;65.63;;;;;;;5.12;56.33;103029.19;5225395;28;20411;-52
2022/03/21 02:10:28;;;;;;;93.95;68.32;;;;;;;5.05;56.43;103028.59;5225282;28;20416;-50
2022/03/21 02:13:02;;;;;;;95.65;69.55;;;;;;;5.09;56.51;103029.31;5226090;28;20459;-54
2022/03/21 02:15:35;;;;;;;99.85;74.43;;;;;;;5.06;56.36;103027.66;5226644;28;20868;-53
2022/03/21 02:18:10;;;;;;;107.85;75.95;;;;;;;4.98;56.53;103016.63;5227283;28;20418;-53
2022/03/21 02:20:42;;;;;;;104.65;76.90;;;;;;;5.02;56.71;103023.47;5226325;28;20553;-53
2022/03/21 02:23:21;;;;;;;96.57;72.43;;;;;;;4.96;56.59;103051.66;5226864;28;20854;-55
2022/03/21 02:25:56;;;;;;;105.00;73.90;;;;;;;5.01;56.82;103021.75;5225317;28;20550;-53
2022/03/21 02:28:32;;;;;;;88.53;68.28;;;;;;;5.02;56.59;103026.09;5228732;28;20427;-61
2022/03/21 02:31:05;;;;;;;99.93;72.93;;;;;;;5.03;56.78;103030.41;5226261;28;20984;-53
2022/03/21 02:33:37;;;;;;;98.93;71.53;;;;;;;5.06;56.69;103046.00;5228471;28;22307;-51
2022/03/21 02:36:11;;;;;;;92.97;69.20;;;;;;;5.07;56.83;103025.91;5229990;28;20416;-53
2022/03/21 02:38:45;;;;;;;96.63;66.85;;;;;;;5.10;56.98;103031.00;5229484;28;20407;-51
2022/03/21 02:41:19;;;;;;;94.80;69.15;;;;;;;5.11;56.84;103026.63;5226029;28;20851;-49
2022/03/21 02:43:53;;;;;;;98.45;69.13;;;;;;;5.16;56.97;103032.53;5226890;28;20872;-55
2022/03/21 02:46:27;;;;;;;95.03;68.75;;;;;;;5.08;56.76;103019.75;5229966;28;20443;-54
2022/03/21 02:49:00;;;;;;;90.67;66.07;;;;;;;5.18;56.89;103035.97;5228103;28;20510;-57
2022/03/21 02:51:37;;;;;;;90.47;65.47;;;;;;;5.15;56.65;103033.47;5223738;28;20497;-54
2022/03/21 02:54:10;;;;;;;90.13;66.00;;;;;;;5.20;56.93;103039.34;5227664;28;20541;-54
2022/03/21 02:56:45;;;;;;;90.60;65.28;;;;;;;5.09;57.00;103019.69;5225857;28;20396;-59
2022/03/21 02:59:18;;;;;;;87.28;63.25;;;;;;;5.19;57.04;103035.03;5221148;28;20880;-61
2022/03/21 03:01:53;;;;;;;86.57;64.10;;;;;;;5.17;57.18;103042.09;5229115;28;20430;-52
2022/03/21 03:04:27;;;;;;;87.50;62.58;;;;;;;5.14;57.00;103047.47;5224748;28;20411;-53
2022/03/21 03:06:59;;;;;;;79.73;58.70;;;;;;;5.06;56.84;103018.97;5226788;28;20473;-54
2022/03/21 03:09:33;;;;;;;79.00;58.85;;;;;;;5.19;57.07;103040.28;5227444;28;20423;-51
2022/03/21 03:12:09;;;;;;;84.90;61.07;;;;;;;5.16;56.79;103035.16;5235863;28;20447;-51
2022/03/21 03:14:41;;;;;;;79.72;59.70;;;;;;;5.21;56.92;103044.56;5234191;28;20426;-55
2022/03/21 03:17:14;;;;;;;81.65;58.05;;;;;;;5.18;56.91;103039.44;5228166;28;20745;-53
2022/03/21 03:19:46;;;;;;;77.82;56.95;;;;;;;5.17;57.02;103042.09;5228582;28;20756;-51
2022/03/21 03:22:19;;;;;;;80.07;58.37;;;;;;;5.22;56.94;103045.41;5223464;28;20510;-57
2022/03/21 03:24:52;;;;;;;74.57;55.67;;;;;;;5.19;56.81;103045.53;5221890;28;20552;-54
2022/03/21 03:27:26;;;;;;;81.70;58.57;;;;;;;5.16;56.93;103041.25;5224475;28;20800;-52
2022/03/21 03:30:00;;;;;;;80.70;58.45;;;;;;;5.22;56.93;103048.03;5229365;28;20416;-50
2022/03/21 03:32:33;;;;;;;85.70;59.75;;;;;;;5.20;56.80;103048.09;5225298;28;20811;-55
2022/03/21 03:35:06;;;;;;;78.35;58.33;;;;;;;5.18;56.87;103044.69;5227304;28;20496;-57
2022/03/21 03:37:39;;;;;;;81.78;59.80;;;;;;;5.07;56.95;103026.75;5225020;28;20783;-56
2022/03/21 03:40:13;;;;;;;85.63;60.50;;;;;;;5.16;56.91;103050.88;5228258;28;20494;-54
2022/03/21 03:42:47;;;;;;;84.23;60.73;;;;;;;5.14;56.73;103052.69;5224145;28;20455;-54
2022/03/21 03:45:20;;;;;;;83.18;58.58;;;;;;;5.12;56.71;103054.53;5225076;28;20881;-51
2022/03/21 03:47:55;;;;;;;77.10;56.35;;;;;;;5.07;56.72;103052.94;5223223;28;20419;-55
2022/03/21 03:50:28;;;;;;;87.25;62.58;;;;;;;5.06;56.91;103053.84;5221970;28;20529;-52
2022/03/21 03:53:01;;;;;;;84.38;60.97;;;;;;;5.03;56.78;103056.59;5197576;28;20755;-55
2022/03/21 03:55:33;;;;;;;82.10;60.75;;;;;;;4.99;56.99;103048.94;5225282;28;20459;-53
2022/03/21 03:58:07;;;;;;;86.80;61.65;;;;;;;5.00;57.13;103054.09;5226263;28;20771;-55
2022/03/21 04:00:40;;;;;;;82.23;60.50;;;;;;;5.00;56.87;103056.72;5223016;28;20795;-51
2022/03/21 04:06:02;;;;;;;93.90;66.28;;;;;;;5.00;57.04;103061.94;5225340;28;20462;-54
2022/03/21 04:08:35;;;;;;;93.68;65.55;;;;;;;4.99;57.03;103054.16;5225091;28;20412;-52
2022/03/21 04:11:07;;;;;;;96.30;65.75;;;;;;;5.06;57.11;103068.72;5222548;28;20447;-57
2022/03/21 04:13:42;;;;;;;83.30;58.50;;;;;;;5.07;57.01;103067.81;5226697;28;20495;-54
2022/03/21 04:16:15;;;;;;;88.30;63.38;;;;;;;5.11;57.25;103068.53;5226010;28;20406;-53
2022/03/21 04:18:48;;;;;;;77.15;55.47;;;;;;;5.11;57.13;103063.28;5223561;28;20491;-58
2022/03/21 04:21:20;;;;;;;75.78;55.45;;;;;;;5.13;57.34;103066.72;5224235;28;20435;-51
2022/03/21 04:23:53;;;;;;;73.53;55.60;;;;;;;5.19;57.05;103066.47;5227881;28;20543;-51
2022/03/21 04:26:25;;;;;;;74.07;53.15;;;;;;;5.20;57.06;103071.69;5224662;28;20498;-52
2022/03/21 04:29:02;;;;;;;73.57;55.17;;;;;;;5.05;57.01;103060.03;5228101;28;20509;-53
2022/03/21 04:31:35;;;;;;;73.07;53.67;;;;;;;5.17;57.05;103057.81;5226117;28;21100;-50
2022/03/21 04:34:07;;;;;;;70.72;51.88;;;;;;;5.15;57.11;103064.91;5225359;28;20494;-51
2022/03/21 04:36:42;;;;;;;78.63;55.20;;;;;;;5.23;57.00;103074.19;5224868;28;20411;-55
2022/03/21 04:39:15;;;;;;;75.45;53.67;;;;;;;5.26;57.10;103079.25;5222629;28;20502;-54
2022/03/21 04:41:48;;;;;;;75.75;55.40;;;;;;;4.96;56.95;103038.56;5226074;28;20427;-47
2022/03/21 04:44:21;;;;;;;75.78;55.20;;;;;;;5.26;57.03;103084.50;5225055;28;20476;-52
2022/03/21 04:46:54;;;;;;;76.60;54.65;;;;;;;5.28;57.05;103092.31;5224808;28;20506;-51
2022/03/21 04:49:27;;;;;;;72.78;54.25;;;;;;;5.28;57.11;103087.06;5226342;28;20775;-57
2022/03/21 04:52:00;;;;;;;75.35;55.90;;;;;;;5.26;56.89;103083.66;5226615;28;20776;-55
2022/03/21 04:54:32;;;;;;;79.40;55.05;;;;;;;5.27;56.87;103093.25;5230884;28;20787;-57
2022/03/21 04:57:06;;;;;;;78.38;56.22;;;;;;;5.25;56.86;103088.03;5230542;28;20431;-51
2022/03/21 04:59:40;;;;;;;82.45;55.30;;;;;;;5.25;56.90;103097.69;5230494;28;20419;-54
2022/03/21 05:02:13;;;;;;;77.75;55.88;;;;;;;5.16;56.72;103093.63;5230164;28;20839;-54
2022/03/21 05:04:45;;;;;;;79.35;56.35;;;;;;;5.24;56.60;103090.75;5224959;28;20411;-54
2022/03/21 05:07:19;;;;;;;78.63;55.78;;;;;;;5.22;56.94;103089.94;5205195;28;20954;-51
2022/03/21 05:09:51;;;;;;;78.38;56.65;;;;;;;5.18;56.63;103090.97;5208767;28;20429;-48
2022/03/21 05:12:24;;;;;;;82.18;58.88;;;;;;;5.17;56.67;103095.38;5209955;28;20435;-50
2022/03/21 05:14:58;;;;;;;88.20;58.13;;;;;;;4.73;56.93;103016.72;5209814;28;20475;-56
2022/03/21 05:17:30;;;;;;;84.70;58.97;;;;;;;5.13;56.78;103099.00;5208910;28;20432;-54
2022/03/21 05:20:08;;;;;;;80.13;59.15;;;;;;;5.12;56.66;103096.44;5209688;28;20520;-53
2022/03/21 05:22:41;;;;;;;83.40;57.38;;;;;;;5.07;56.80;103094.00;5208043;28;20401;-55
2022/03/21 05:31:02;;;;;;;84.20;57.28;;;;;;;5.02;56.87;103104.66;5206993;28;20402;-53
2022/03/21 05:36:26;;;;;;;87.75;58.55;;;;;;;4.93;56.88;103094.53;5205709;28;20417;-53
2022/03/21 05:38:59;;;;;;;81.75;59.17;;;;;;;4.94;57.01;103098.84;5209042;28;20401;-57
2022/03/21 05:41:32;;;;;;;84.97;60.28;;;;;;;5.00;57.04;103103.84;5206791;28;20490;-53
2022/03/21 05:44:05;;;;;;;86.53;57.97;;;;;;;4.96;56.81;103104.88;5209793;28;20501;-53
2022/03/21 05:46:39;;;;;;;90.68;59.60;;;;;;;4.98;56.77;103105.66;5209239;28;20743;-53
2022/03/21 05:49:11;;;;;;;83.38;59.40;;;;;;;4.99;56.87;103107.41;5208049;28;20494;-54
2022/03/21 05:51:44;;;;;;;104.30;62.40;;;;;;;4.99;56.86;103104.78;5209918;28;20409;-54
2022/03/21 05:54:16;;;;;;;87.40;57.75;;;;;;;4.97;56.89;103113.59;5207473;28;20797;-52
2022/03/21 05:56:49;;;;;;;84.53;58.15;;;;;;;5.02;56.91;103123.00;5198053;28;20424;-56
2022/03/21 06:02:09;;;;;;;84.03;58.95;;;;;;;5.04;57.14;103125.53;5198816;28;20583;-51
2022/03/21 06:04:42;;;;;;;83.15;58.03;;;;;;;5.02;57.03;103123.00;5213765;28;20420;-51
2022/03/21 06:07:19;;;;;;;82.88;56.85;;;;;;;5.06;56.98;103129.81;5199161;28;20800;-49
2022/03/21 06:09:52;;;;;;;86.50;59.95;;;;;;;5.07;57.10;103125.41;5186485;28;20415;-49
2022/03/21 06:12:25;;;;;;;89.97;60.77;;;;;;;5.15;56.98;103133.00;5200149;28;20663;-52
2022/03/21 06:15:00;;;;;;;85.47;56.30;;;;;;;5.20;56.89;103136.28;5207967;28;20417;-52
2022/03/21 06:17:39;;;;;;;84.15;55.33;;;;;;;5.21;57.09;103138.00;5206344;28;20452;-59
2022/03/21 06:20:13;;;;;;;82.53;60.65;;;;;;;5.27;56.87;103143.03;5210883;28;20400;-54
2022/03/21 06:22:46;;;;;;;81.55;55.95;;;;;;;5.28;57.02;103126.38;5205687;28;20897;-50
2022/03/21 06:25:18;;;;;;;86.15;58.38;;;;;;;5.29;57.26;103135.94;5202520;28;20497;-54
2022/03/21 06:27:51;;;;;;;76.68;54.55;;;;;;;5.34;57.03;103138.41;5176972;28;20405;-55
2022/03/21 06:30:23;;;;;;;73.57;53.03;;;;;;;5.31;57.23;103118.41;5204547;28;20429;-55
2022/03/21 06:32:57;;;;;;;79.63;53.53;;;;;;;5.46;57.20;103138.75;5210582;28;20424;-54
2022/03/21 06:35:30;;;;;;;69.80;52.65;;;;;;;5.54;57.14;103149.81;5206499;28;20426;-57
2022/03/21 06:38:02;;;;;;;74.72;53.15;;;;;;;5.62;56.94;103151.28;5209854;28;20417;-51
2022/03/21 06:40:35;;;;;;;74.18;54.63;;;;;;;5.62;57.14;103143.41;5202438;28;20502;-54
2022/03/21 06:43:08;;;;;;;77.93;55.50;;;;;;;5.72;57.09;103147.34;5204019;28;20425;-58
2022/03/21 06:45:40;;;;;;;79.18;54.75;;;;;;;5.82;56.84;103151.31;5205386;28;20489;-53
2022/03/21 06:48:15;;;;;;;76.10;52.80;;;;;;;5.89;56.92;103154.56;5206156;28;20483;-53
2022/03/21 06:50:48;;;;;;;76.55;55.17;;;;;;;5.99;56.96;103162.00;5197842;28;20921;-54
2022/03/21 06:53:20;;;;;;;82.07;55.37;;;;;;;6.06;56.89;103161.75;5195099;28;20849;-51
2022/03/21 06:55:53;;;;;;;78.55;54.72;;;;;;;6.16;56.88;103170.94;5206311;28;20508;-52
2022/03/21 06:58:25;;;;;;;79.15;57.30;;;;;;;6.78;56.23;103177.94;5202125;28;21008;-54
2022/03/21 07:00:58;;;;;;;79.53;55.63;;;;;;;7.45;55.42;103165.25;5202989;28;20445;-51
2022/03/21 07:03:32;;;;;;;82.45;56.88;;;;;;;8.46;54.30;103176.94;5205571;28;20890;-53
2022/03/21 07:06:05;;;;;;;72.95;53.95;;;;;;;9.70;53.34;103170.25;5207544;28;20929;-53
2022/03/21 07:08:37;;;;;;;69.50;48.43;;;;;;;10.97;52.18;103171.59;5227310;28;20420;-56
2022/03/21 07:11:12;;;;;;;67.97;44.17;;;;;;;12.17;51.05;103170.00;5223730;28;20414;-53
2022/03/21 07:13:44;;;;;;;68.63;43.67;;;;;;;13.30;50.13;103172.75;5223287;28;20407;-56
2022/03/21 07:16:17;;;;;;;58.55;39.22;;;;;;;14.41;48.96;103175.19;5223693;28;20953;-54
2022/03/21 07:18:53;;;;;;;60.08;39.45;;;;;;;15.36;48.00;103175.69;5220639;28;20419;-55
2022/03/21 07:21:26;;;;;;;56.33;38.75;;;;;;;16.20;47.00;103173.25;5224633;28;20535;-55
2022/03/21 07:23:58;;;;;;;56.47;37.53;;;;;;;17.05;46.06;103186.34;5218623;28;20414;-55
2022/03/21 07:26:32;;;;;;;52.95;36.85;;;;;;;17.82;44.96;103175.00;5214075;28;20528;-54
2022/03/21 07:29:06;;;;;;;55.63;36.53;;;;;;;18.43;44.09;103177.31;5222169;28;20438;-49
2022/03/21 07:31:38;;;;;;;54.13;35.33;;;;;;;18.98;43.38;103176.56;5226557;28;21485;-53
2022/03/21 07:34:13;;;;;;;52.58;36.15;;;;;;;19.67;42.41;103175.19;5226478;28;20534;-52
2022/03/21 07:36:49;;;;;;;53.60;36.00;;;;;;;20.24;41.48;103167.59;5195444;28;20486;-50
2022/03/21 07:39:21;;;;;;;53.58;35.80;;;;;;;20.68;40.73;103182.84;5212883;28;20495;-54
2022/03/21 07:42:00;;;;;;;50.05;34.10;;;;;;;21.15;40.03;103174.28;5223102;28;20494;-53
2022/03/21 07:47:22;;;;;;;49.47;34.42;;;;;;;22.00;38.73;103183.03;5215088;28;20444;-51
2022/03/21 07:49:56;;;;;;;48.05;34.00;;;;;;;22.40;38.02;103178.66;5223346;28;20926;-54
2022/03/21 07:52:28;;;;;;;49.75;33.33;;;;;;;22.76;37.43;103178.19;5225394;28;20414;-53
2022/03/21 07:55:01;;;;;;;52.03;34.22;;;;;;;23.28;36.80;103183.03;5226223;28;20429;-54
2022/03/21 07:57:33;;;;;;;54.05;36.85;;;;;;;23.47;36.25;103182.59;5226451;28;20502;-51
2022/03/21 08:00:09;;;;;;;52.10;36.00;;;;;;;23.85;35.71;103179.16;5220362;28;20557;-51
2022/03/21 08:02:45;;;;;;;46.90;35.58;;;;;;;24.15;35.31;103180.03;5222979;28;20970;-52
2022/03/21 08:05:20;;;;;;;48.40;34.83;;;;;;;24.30;34.69;103198.97;5219992;28;20526;-51
2022/03/21 08:07:52;;;;;;;47.88;35.28;;;;;;;24.48;34.43;103179.75;5220592;28;20487;-54
2022/03/21 08:10:25;;;;;;;48.38;35.60;;;;;;;24.85;33.96;103185.06;5224737;28;20481;-55
2022/03/21 08:12:58;;;;;;;49.08;34.33;;;;;;;25.04;33.66;103189.03;5225905;28;20415;-54
2022/03/21 08:15:30;;;;;;;50.08;33.97;;;;;;;25.09;33.45;103188.47;5223846;28;20424;-58
2022/03/21 08:18:04;;;;;;;45.45;33.00;;;;;;;25.08;33.16;103194.88;5221965;28;20526;-54
2022/03/21 08:20:39;;;;;;;44.33;31.10;;;;;;;24.91;33.21;103196.97;5224928;28;20419;-55
2022/03/21 08:23:14;;;;;;;44.38;31.42;;;;;;;24.73;33.22;103189.25;5220024;28;20795;-53
2022/03/21 08:25:48;;;;;;;42.20;30.60;;;;;;;24.65;32.96;103192.03;5221090;28;20439;-54
2022/03/21 08:28:20;;;;;;;42.58;31.35;;;;;;;24.82;32.63;103198.94;5218980;28;20423;-53
2022/03/21 08:30:53;;;;;;;46.90;31.40;;;;;;;24.72;32.52;103193.00;5221307;28;20479;-55
2022/03/21 08:33:25;;;;;;;48.03;31.88;;;;;;;24.72;32.52;103203.81;5223617;28;20459;-53
2022/03/21 08:35:59;;;;;;;42.67;30.65;;;;;;;24.80;32.39;103200.16;5224672;28;20827;-53
2022/03/21 08:38:32;;;;;;;43.00;31.67;;;;;;;24.87;32.24;103205.63;5222421;28;20443;-57
2022/03/21 08:41:04;;;;;;;42.90;30.63;;;;;;;24.62;32.37;103189.72;5224572;28;20431;-57
2022/03/21 08:43:37;;;;;;;43.47;30.60;;;;;;;24.46;32.48;103193.44;5216731;28;20428;-52
2022/03/21 08:46:09;;;;;;;45.80;32.00;;;;;;;24.11;32.52;103173.34;5219880;28;20479;-53
2022/03/21 08:51:33;;;;;;;43.23;32.97;;;;;;;23.78;33.01;103195.22;5217523;28;20422;-55
2022/03/21 08:54:07;;;;;;;41.67;29.58;;;;;;;23.65;33.08;103197.66;5224330;28;20418;-57
2022/03/21 08:56:39;;;;;;;40.42;29.92;;;;;;;23.38;33.51;103202.56;5223768;28;20422;-55
2022/03/21 08:59:12;;;;;;;41.65;29.25;;;;;;;23.10;33.73;103206.72;5223137;28;20470;-56
2022/03/21 09:01:44;;;;;;;39.97;28.08;;;;;;;22.99;33.73;103205.28;5219936;28;20423;-56
2022/03/21 09:04:17;;;;;;;36.90;27.83;;;;;;;22.65;34.12;103200.13;5222247;28;20533;-55
2022/03/21 09:06:51;;;;;;;37.20;27.10;;;;;;;22.45;34.48;103195.16;5220268;28;20472;-57
2022/03/21 09:09:24;;;;;;;40.95;29.00;;;;;;;22.32;34.54;103197.50;5220070;28;20587;-55
2022/03/21 09:11:57;;;;;;;45.30;27.67;;;;;;;22.13;34.80;103197.84;5220012;28;20604;-56
2022/03/21 09:14:29;;;;;;;39.28;28.45;;;;;;;22.03;35.14;103201.53;5218629;28;20423;-55
2022/03/21 09:17:01;;;;;;;41.20;27.98;;;;;;;21.88;35.20;103205.91;5219090;28;20500;-57
2022/03/21 09:19:34;;;;;;;41.15;28.58;;;;;;;21.61;35.40;103186.38;5219165;28;20418;-51
2022/03/21 09:22:12;;;;;;;35.25;26.90;;;;;;;21.44;35.64;103200.81;5218153;28;20534;-59
2022/03/21 09:24:45;;;;;;;38.67;29.03;;;;;;;21.22;35.99;103202.22;5220022;28;20466;-54
2022/03/21 09:27:20;;;;;;;38.28;27.60;;;;;;;20.76;36.61;103199.00;5222675;28;20438;-59
2022/03/21 09:29:52;;;;;;;36.03;26.97;;;;;;;20.36;36.92;103199.56;5218624;28;20504;-55
2022/03/21 09:32:25;;;;;;;37.20;27.55;;;;;;;19.88;37.15;103177.56;5219779;28;20803;-57
2022/03/21 09:34:59;;;;;;;38.00;25.77;;;;;;;19.72;37.51;103194.31;5222194;28;20772;-51
2022/03/21 09:37:33;;;;;;;34.77;25.27;;;;;;;19.27;37.70;103199.69;5217654;28;20428;-54
2022/03/21 09:40:08;;;;;;;34.38;24.83;;;;;;;18.83;38.08;103196.81;5223471;28;20423;-57
2022/03/21 09:42:41;;;;;;;39.75;26.42;;;;;;;18.51;38.24;103197.13;5223705;28;20430;-53
2022/03/21 09:45:14;;;;;;;45.33;27.42;;;;;;;18.19;38.32;103203.69;5221618;28;20522;-56
2022/03/21 09:50:42;;;;;;;36.58;24.95;;;;;;;17.69;38.52;103191.28;5222432;28;23619;-55
2022/03/21 09:53:17;;;;;;;45.53;28.05;;;;;;;17.55;38.53;103193.50;5227685;28;20434;-56
2022/03/21 09:55:50;;;;;;;40.53;27.15;;;;;;;17.43;38.50;103198.94;5211602;28;20422;-54
2022/03/21 09:58:23;;;;;;;41.50;27.60;;;;;;;17.32;38.33;103204.41;5221957;28;20409;-53
2022/03/21 10:00:56;;;;;;;42.08;27.70;;;;;;;17.03;38.12;103177.63;5227137;28;20460;-53
2022/03/21 10:03:29;;;;;;;41.73;25.77;;;;;;;17.15;38.04;103197.06;5221640;28;20503;-54
2022/03/21 10:06:01;;;;;;;39.60;27.17;;;;;;;17.08;37.75;103194.09;5219657;28;20430;-54
2022/03/21 10:08:35;;;;;;;38.65;28.02;;;;;;;16.81;37.67;103168.81;5220304;28;20415;-54
2022/03/21 10:11:07;;;;;;;38.40;27.43;;;;;;;16.91;37.54;103198.25;5224085;28;20415;-53
2022/03/21 10:13:40;;;;;;;39.57;26.23;;;;;;;16.92;37.38;103194.59;5224391;28;20971;-57
2022/03/21 10:16:14;;;;;;;34.17;24.17;;;;;;;16.89;37.20;103197.53;5219850;28;20493;-54
2022/03/21 10:18:59;;;;;;;37.75;24.63;;;;;;;16.83;36.93;103187.38;5224115;28;20415;-55
2022/03/21 10:21:31;;;;;;;34.17;23.05;;;;;;;16.83;36.81;103192.72;5223060;28;20423;-54
2022/03/21 10:24:08;;;;;;;34.47;22.90;;;;;;;16.82;36.75;103186.53;5226079;28;20427;-54
2022/03/21 10:26:44;;;;;;;34.53;22.98;;;;;;;16.82;36.44;103191.03;5223511;28;20515;-57
2022/03/21 10:29:17;;;;;;;38.83;23.55;;;;;;;16.82;36.21;103185.69;5227858;28;20442;-57
2022/03/21 10:31:52;;;;;;;34.53;22.17;;;;;;;16.88;36.25;103201.19;5223226;28;20459;-57
2022/03/21 10:34:30;;;;;;;32.87;21.03;;;;;;;16.86;36.00;103195.13;5227139;28;20477;-56
2022/03/21 10:37:05;;;;;;;30.77;21.27;;;;;;;16.88;35.91;103195.84;5224339;28;20501;-52
2022/03/21 10:39:50;;;;;;;29.60;19.98;;;;;;;16.88;35.92;103200.31;5226356;28;20496;-53
2022/03/21 10:42:22;;;;;;;31.42;20.02;;;;;;;16.86;35.63;103197.78;5224903;28;20507;-54
2022/03/21 10:44:57;;;;;;;30.00;18.77;;;;;;;16.89;35.42;103186.84;5224951;28;20412;-54
2022/03/21 10:47:29;;;;;;;26.97;19.10;;;;;;;16.89;35.33;103192.19;5223733;28;20520;-52
2022/03/21 10:50:04;;;;;;;28.70;19.67;;;;;;;16.80;35.27;103192.97;5221764;28;20500;-58
2022/03/21 10:52:36;;;;;;;29.77;19.35;;;;;;;16.71;35.00;103193.75;5220250;28;20419;-53
2022/03/21 10:55:22;;;;;;;24.65;17.05;;;;;;;16.67;35.01;103195.00;5223045;28;20922;-56
2022/03/21 10:57:56;;;;;;;24.98;17.88;;;;;;;16.75;34.81;103195.16;5217017;28;20408;-58
2022/03/21 11:00:30;;;;;;;27.42;18.25;;;;;;;16.74;34.59;103212.16;5223142;28;20530;-56
2022/03/21 11:03:06;;;;;;;25.98;16.20;;;;;;;16.88;34.45;103195.84;5222174;28;20820;-53
2022/03/21 11:05:41;;;;;;;24.15;14.48;;;;;;;16.96;34.14;103188.00;5214299;28;20574;-55
2022/03/21 11:08:16;;;;;;;27.63;16.33;;;;;;;17.01;33.80;103183.09;5192877;28;20505;-58
2022/03/21 11:10:50;;;;;;;22.92;15.43;;;;;;;16.87;33.72;103172.78;5202500;28;20508;-55
2022/03/21 11:13:27;;;;;;;25.27;15.50;;;;;;;16.81;33.63;103168.81;5192484;28;20530;-56
2022/03/21 11:16:00;;;;;;;25.85;16.73;;;;;;;16.80;33.60;103166.28;5205282;28;20444;-55
2022/03/21 11:18:33;;;;;;;20.25;14.18;;;;;;;16.99;33.24;103179.72;5211153;28;20437;-57
2022/03/21 11:21:10;;;;;;;20.25;14.90;;;;;;;16.98;33.18;103178.03;5200462;28;20419;-55
2022/03/21 11:23:43;;;;;;;28.92;14.90;;;;;;;16.93;32.98;103166.91;5195237;28;20932;-55
2022/03/21 11:26:28;;;;;;;26.58;16.95;;;;;;;17.09;32.79;103176.22;5206680;28;20417;-57
2022/03/21 11:29:16;;;;;;;26.23;15.70;;;;;;;17.14;32.70;103179.34;5202874;28;21129;-54
2022/03/21 11:32:25;;;;;;;28.63;14.75;;;;;;;17.12;32.55;103170.63;5204278;28;20460;-55
2022/03/21 11:35:07;;;;;;;25.73;16.10;;;;;;;17.08;32.66;103171.88;5197913;28;20483;-57
2022/03/21 11:37:40;;;;;;;26.85;17.25;;;;;;;17.07;32.63;103172.88;5220560;28;20448;-53
2022/03/21 11:40:33;;;;;;;30.38;16.80;;;;;;;17.18;32.64;103170.06;5223291;28;20426;-54
2022/03/21 11:43:32;;;;;;;23.90;15.30;;;;;;;17.28;32.48;103166.47;5220386;28;20407;-53
2022/03/21 11:46:29;;;;;;;25.27;15.32;;;;;;;17.32;32.38;103172.38;5221484;28;20749;-54
2022/03/21 11:49:03;;;;;;;26.23;16.15;;;;;;;17.37;32.04;103161.25;5218609;28;20772;-58
2022/03/21 11:51:40;;;;;;;25.48;15.80;;;;;;;17.13;32.00;103137.63;5224260;28;20708;-57
2022/03/21 11:54:30;;;;;;;26.77;14.30;;;;;;;17.25;32.14;103161.41;5224235;28;20829;-54
2022/03/21 11:57:05;;;;;;;24.75;14.95;;;;;;;17.33;31.81;103167.88;5224506;28;20507;-58
2022/03/21 12:00:14;;;;;;;24.70;15.07;;;;;;;17.44;31.65;103162.41;5226856;28;21913;-54
2022/03/21 12:03:01;;;;;;;24.00;15.90;;;;;;;17.44;31.62;103160.59;5224592;28;20490;-51
2022/03/21 12:05:55;;;;;;;24.67;14.15;;;;;;;17.41;31.42;103152.00;5225424;28;20899;-53
2022/03/21 12:08:49;;;;;;;23.90;15.38;;;;;;;17.23;31.35;103151.81;5217436;28;20797;-51
2022/03/21 12:12:01;;;;;;;24.92;15.15;;;;;;;17.26;31.22;103155.06;5224860;28;20416;-52